createdAt,value
2023-04-12T00:00:04.686Z,0.00
2023-04-12T00:01:04.674Z,0.00
2023-04-12T00:02:04.754Z,0.00
2023-04-12T00:03:04.718Z,0.00
2023-04-12T00:04:04.849Z,0.00
2023-04-12T00:05:04.661Z,0.00
2023-04-12T00:06:04.609Z,0.00
2023-04-12T00:07:04.599Z,0.00
2023-04-12T00:08:04.586Z,0.00
2023-04-12T00:09:04.575Z,0.00
2023-04-12T00:10:04.560Z,0.00
2023-04-12T00:11:04.544Z,0.00
2023-04-12T00:12:04.568Z,0.00
2023-04-12T00:13:04.524Z,0.00
2023-04-12T00:14:04.533Z,0.00
2023-04-12T00:15:06.181Z,0.00
2023-04-12T00:16:04.541Z,0.00
2023-04-12T00:17:04.466Z,0.00
2023-04-12T00:18:04.469Z,0.00
2023-04-12T00:19:04.442Z,0.00
2023-04-12T00:20:04.438Z,0.00
2023-04-12T00:21:04.419Z,0.00
2023-04-12T00:22:04.403Z,0.00
2023-04-12T00:23:04.393Z,0.00
2023-04-12T00:24:04.380Z,0.00
2023-04-12T00:25:04.377Z,0.00
2023-04-12T00:26:04.363Z,0.00
2023-04-12T00:27:04.347Z,0.00
2023-04-12T00:28:04.406Z,0.00
2023-04-12T00:29:04.317Z,0.00
2023-04-12T00:30:04.298Z,0.00
2023-04-12T00:31:04.324Z,0.00
2023-04-12T00:32:04.276Z,0.00
2023-04-12T00:33:04.325Z,0.00
2023-04-12T00:34:04.255Z,0.00
2023-04-12T00:35:04.234Z,0.00
2023-04-12T00:36:04.246Z,0.00
2023-04-12T00:37:04.210Z,0.00
2023-04-12T00:38:04.202Z,0.00
2023-04-12T00:39:04.179Z,0.00
2023-04-12T00:40:04.174Z,0.00
2023-04-12T00:41:04.156Z,0.00
2023-04-12T00:42:04.166Z,0.00
2023-04-12T00:43:04.128Z,0.00
2023-04-12T00:44:04.132Z,0.00
2023-04-12T00:45:04.101Z,0.00
2023-04-12T00:46:04.087Z,0.00
2023-04-12T00:47:04.113Z,0.00
2023-04-12T00:48:04.103Z,0.00
2023-04-12T00:49:04.057Z,0.00
2023-04-12T00:50:04.036Z,0.00
2023-04-12T00:51:04.024Z,0.00
2023-04-12T00:52:04.014Z,0.00
2023-04-12T00:53:03.997Z,0.00
2023-04-12T00:54:03.981Z,0.00
2023-04-12T00:55:03.974Z,0.00
2023-04-12T00:56:03.953Z,0.00
2023-04-12T00:57:03.965Z,0.00
2023-04-12T00:58:03.929Z,0.00
2023-04-12T00:59:03.919Z,0.00
2023-04-12T01:00:03.922Z,0.00
2023-04-12T01:01:04.002Z,0.00
2023-04-12T01:02:03.941Z,0.00
2023-04-12T01:03:04.066Z,0.00
2023-04-12T01:04:03.894Z,0.00
2023-04-12T01:05:03.842Z,0.00
2023-04-12T01:06:03.824Z,0.00
2023-04-12T01:07:03.821Z,0.00
2023-04-12T01:08:03.792Z,0.00
2023-04-12T01:09:03.785Z,0.00
2023-04-12T01:10:03.784Z,0.00
2023-04-12T01:11:03.753Z,0.00
2023-04-12T01:12:03.739Z,0.00
2023-04-12T01:13:03.726Z,0.00
2023-04-12T01:14:03.716Z,0.00
2023-04-12T01:15:03.711Z,0.00
2023-04-12T01:16:03.723Z,0.00
2023-04-12T01:17:03.672Z,0.00
2023-04-12T01:18:03.781Z,0.00
2023-04-12T01:19:03.648Z,0.00
2023-04-12T01:20:04.712Z,0.00
2023-04-12T01:21:03.618Z,0.00
2023-04-12T01:22:03.614Z,0.00
2023-04-12T01:23:03.596Z,0.00
2023-04-12T01:24:03.611Z,0.00
2023-04-12T01:25:03.564Z,0.00
2023-04-12T01:26:03.581Z,0.00
2023-04-12T01:27:03.551Z,0.00
2023-04-12T01:28:03.527Z,0.00
2023-04-12T01:29:03.524Z,0.00
2023-04-12T01:30:03.497Z,0.00
2023-04-12T01:31:03.496Z,0.00
2023-04-12T01:32:03.544Z,0.00
2023-04-12T01:33:03.555Z,0.00
2023-04-12T01:34:03.519Z,0.00
2023-04-12T01:35:03.431Z,0.00
2023-04-12T01:36:04.571Z,0.00
2023-04-12T01:37:03.450Z,0.00
2023-04-12T01:38:03.398Z,0.00
2023-04-12T01:39:03.386Z,0.00
2023-04-12T01:40:03.371Z,0.00
2023-04-12T01:41:03.356Z,0.00
2023-04-12T01:42:03.357Z,0.00
2023-04-12T01:43:03.326Z,0.00
2023-04-12T01:44:03.316Z,0.00
2023-04-12T01:45:03.302Z,0.00
2023-04-12T01:46:03.310Z,0.00
2023-04-12T01:47:03.277Z,0.00
2023-04-12T01:48:03.318Z,0.00
2023-04-12T01:49:03.249Z,0.00
2023-04-12T01:50:03.234Z,0.00
2023-04-12T01:51:03.237Z,0.00
2023-04-12T01:52:03.209Z,0.00
2023-04-12T01:53:03.201Z,0.00
2023-04-12T01:54:03.181Z,0.00
2023-04-12T01:55:03.167Z,0.00
2023-04-12T01:56:03.166Z,0.00
2023-04-12T01:57:03.153Z,0.00
2023-04-12T01:58:03.144Z,0.00
2023-04-12T01:59:03.115Z,0.00
2023-04-12T02:00:03.102Z,0.00
2023-04-12T02:01:03.118Z,0.00
2023-04-12T02:02:03.176Z,0.00
2023-04-12T02:03:03.250Z,0.00
2023-04-12T02:04:03.184Z,0.00
2023-04-12T02:05:03.036Z,0.00
2023-04-12T02:06:03.025Z,0.00
2023-04-12T02:07:03.008Z,0.00
2023-04-12T02:08:03.014Z,0.00
2023-04-12T02:09:02.989Z,0.00
2023-04-12T02:10:02.972Z,0.00
2023-04-12T02:11:02.956Z,0.00
2023-04-12T02:12:02.941Z,0.00
2023-04-12T02:13:02.928Z,0.00
2023-04-12T02:14:02.910Z,0.00
2023-04-12T02:15:02.904Z,0.00
2023-04-12T02:16:02.906Z,0.00
2023-04-12T02:17:02.914Z,0.00
2023-04-12T02:18:02.874Z,0.00
2023-04-12T02:19:02.846Z,0.00
2023-04-12T02:20:02.851Z,0.00
2023-04-12T02:21:02.820Z,0.00
2023-04-12T02:22:02.813Z,0.00
2023-04-12T02:23:02.790Z,0.00
2023-04-12T02:24:02.789Z,0.00
2023-04-12T02:25:02.802Z,0.00
2023-04-12T02:26:02.779Z,0.00
2023-04-12T02:27:02.744Z,0.00
2023-04-12T02:28:02.726Z,0.00
2023-04-12T02:29:02.710Z,0.00
2023-04-12T02:30:02.720Z,0.00
2023-04-12T02:31:02.714Z,0.00
2023-04-12T02:32:02.678Z,0.00
2023-04-12T02:33:02.734Z,0.00
2023-04-12T02:34:02.661Z,0.00
2023-04-12T02:35:02.633Z,0.00
2023-04-12T02:36:02.753Z,0.00
2023-04-12T02:37:02.611Z,0.00
2023-04-12T02:38:02.589Z,0.00
2023-04-12T02:39:02.583Z,0.00
2023-04-12T02:40:02.681Z,0.00
2023-04-12T02:41:02.555Z,0.00
2023-04-12T02:42:02.553Z,0.00
2023-04-12T02:43:02.525Z,0.00
2023-04-12T02:44:02.513Z,0.00
2023-04-12T02:45:02.502Z,0.00
2023-04-12T02:46:02.570Z,0.00
2023-04-12T02:47:02.469Z,0.00
2023-04-12T02:48:02.549Z,0.00
2023-04-12T02:49:02.457Z,0.00
2023-04-12T02:50:02.450Z,0.00
2023-04-12T02:51:02.416Z,0.00
2023-04-12T02:52:02.489Z,0.00
2023-04-12T02:53:02.386Z,0.00
2023-04-12T02:54:02.378Z,0.00
2023-04-12T02:55:02.402Z,0.00
2023-04-12T02:56:02.697Z,0.00
2023-04-12T02:57:02.360Z,0.00
2023-04-12T02:58:02.358Z,0.00
2023-04-12T02:59:02.308Z,0.00
2023-04-12T03:00:02.295Z,0.00
2023-04-12T03:01:02.303Z,0.00
2023-04-12T03:02:02.397Z,0.00
2023-04-12T03:03:02.435Z,0.00
2023-04-12T03:04:02.454Z,0.00
2023-04-12T03:05:02.236Z,0.00
2023-04-12T03:06:02.249Z,0.00
2023-04-12T03:07:02.219Z,0.00
2023-04-12T03:08:02.201Z,0.00
2023-04-12T03:09:02.177Z,0.00
2023-04-12T03:10:02.162Z,0.00
2023-04-12T03:11:02.145Z,0.00
2023-04-12T03:12:02.141Z,0.00
2023-04-12T03:13:02.120Z,0.00
2023-04-12T03:14:02.113Z,0.00
2023-04-12T03:15:02.091Z,0.00
2023-04-12T03:16:02.091Z,0.00
2023-04-12T03:17:02.093Z,0.00
2023-04-12T03:18:02.100Z,0.00
2023-04-12T03:19:02.056Z,0.00
2023-04-12T03:20:02.028Z,0.00
2023-04-12T03:21:02.013Z,0.00
2023-04-12T03:22:01.999Z,0.00
2023-04-12T03:23:01.992Z,0.00
2023-04-12T03:24:01.993Z,0.00
2023-04-12T03:25:01.955Z,0.00
2023-04-12T03:26:01.948Z,0.00
2023-04-12T03:27:01.936Z,0.00
2023-04-12T03:28:01.932Z,0.00
2023-04-12T03:29:01.902Z,0.00
2023-04-12T03:30:01.888Z,0.00
2023-04-12T03:31:01.949Z,0.00
2023-04-12T03:32:01.880Z,0.00
2023-04-12T03:33:01.902Z,0.00
2023-04-12T03:34:01.839Z,0.00
2023-04-12T03:35:01.820Z,0.00
2023-04-12T03:36:01.875Z,0.00
2023-04-12T03:37:01.845Z,0.00
2023-04-12T03:38:01.782Z,0.00
2023-04-12T03:39:01.766Z,0.00
2023-04-12T03:40:01.776Z,0.00
2023-04-12T03:41:01.736Z,0.00
2023-04-12T03:42:01.723Z,0.00
2023-04-12T03:43:02.200Z,0.00
2023-04-12T03:44:01.696Z,0.00
2023-04-12T03:45:01.685Z,0.00
2023-04-12T03:46:01.719Z,0.00
2023-04-12T03:47:01.669Z,0.00
2023-04-12T03:48:01.703Z,0.00
2023-04-12T03:49:01.631Z,0.00
2023-04-12T03:51:01.611Z,0.00
2023-04-12T03:52:01.589Z,0.00
2023-04-12T03:53:01.575Z,0.00
2023-04-12T03:54:01.563Z,0.00
2023-04-12T03:55:01.557Z,0.00
2023-04-12T03:56:01.557Z,0.00
2023-04-12T03:57:01.522Z,0.00
2023-04-12T03:58:01.508Z,0.00
2023-04-12T03:59:01.502Z,0.00
2023-04-12T04:00:01.552Z,0.00
2023-04-12T04:01:01.471Z,0.00
2023-04-12T04:02:01.470Z,0.00
2023-04-12T04:03:01.565Z,0.00
2023-04-12T04:04:02.156Z,0.00
2023-04-12T04:05:01.439Z,0.00
2023-04-12T04:06:01.410Z,0.00
2023-04-12T04:07:01.389Z,0.00
2023-04-12T04:08:01.378Z,0.00
2023-04-12T04:09:01.368Z,0.00
2023-04-12T04:10:01.349Z,0.00
2023-04-12T04:11:01.331Z,0.00
2023-04-12T04:12:01.337Z,0.00
2023-04-12T04:13:01.305Z,0.00
2023-04-12T04:14:01.290Z,0.00
2023-04-12T04:15:01.279Z,0.00
2023-04-12T04:16:01.293Z,0.00
2023-04-12T04:17:01.254Z,0.00
2023-04-12T04:18:01.275Z,0.00
2023-04-12T04:19:01.230Z,0.00
2023-04-12T04:20:01.211Z,0.00
2023-04-12T04:21:01.199Z,0.00
2023-04-12T04:22:01.183Z,0.00
2023-04-12T04:23:01.169Z,0.00
2023-04-12T04:24:01.197Z,0.00
2023-04-12T04:25:01.145Z,0.00
2023-04-12T04:26:01.129Z,0.00
2023-04-12T04:27:01.121Z,0.00
2023-04-12T04:28:01.195Z,0.00
2023-04-12T04:29:01.090Z,0.00
2023-04-12T04:30:01.081Z,0.00
2023-04-12T04:31:01.092Z,0.00
2023-04-12T04:32:01.131Z,0.00
2023-04-12T04:33:01.200Z,0.00
2023-04-12T04:34:01.026Z,0.00
2023-04-12T04:35:01.013Z,4.00
2023-04-12T04:36:01.043Z,4.00
2023-04-12T04:37:00.983Z,0.00
2023-04-12T04:38:00.970Z,4.00
2023-04-12T04:39:00.958Z,4.00
2023-04-12T04:40:00.959Z,4.00
2023-04-12T04:41:00.936Z,4.00
2023-04-12T04:42:00.928Z,4.00
2023-04-12T04:43:00.940Z,8.00
2023-04-12T04:44:00.913Z,8.00
2023-04-12T04:45:00.891Z,8.00
2023-04-12T04:46:00.884Z,8.00
2023-04-12T04:47:00.885Z,8.00
2023-04-12T04:48:00.881Z,8.00
2023-04-12T04:49:00.821Z,12.00
2023-04-12T04:50:00.818Z,12.00
2023-04-12T04:51:00.797Z,12.00
2023-04-12T04:52:00.781Z,16.00
2023-04-12T04:53:00.768Z,16.00
2023-04-12T04:54:00.757Z,16.00
2023-04-12T04:55:00.750Z,16.00
2023-04-12T04:56:00.731Z,20.00
2023-04-12T04:57:00.713Z,20.00
2023-04-12T04:58:00.702Z,20.00
2023-04-12T04:59:00.812Z,24.00
2023-04-12T05:00:00.716Z,24.00
2023-04-12T05:01:00.668Z,24.00
2023-04-12T05:02:00.700Z,28.00
2023-04-12T05:03:00.674Z,28.00
2023-04-12T05:04:00.696Z,32.00
2023-04-12T05:05:00.602Z,32.00
2023-04-12T05:06:00.594Z,36.00
2023-04-12T05:07:00.578Z,44.00
2023-04-12T05:08:00.564Z,44.00
2023-04-12T05:09:00.564Z,48.00
2023-04-12T05:10:00.586Z,52.00
2023-04-12T05:11:00.520Z,56.00
2023-04-12T05:12:00.511Z,56.00
2023-04-12T05:13:00.497Z,60.00
2023-04-12T05:14:00.498Z,60.00
2023-04-12T05:15:11.224Z,64.00
2023-04-12T05:16:00.473Z,68.00
2023-04-12T05:17:00.594Z,72.00
2023-04-12T05:18:00.483Z,76.00
2023-04-12T05:19:00.421Z,76.00
2023-04-12T05:20:00.405Z,76.00
2023-04-12T05:21:00.384Z,80.00
2023-04-12T05:22:00.371Z,80.00
2023-04-12T05:23:00.357Z,80.00
2023-04-12T05:24:00.345Z,84.00
2023-04-12T05:25:00.333Z,88.00
2023-04-12T05:26:00.317Z,88.00
2023-04-12T05:27:00.312Z,88.00
2023-04-12T05:28:00.291Z,88.00
2023-04-12T05:29:00.280Z,96.00
2023-04-12T05:30:00.354Z,100.00
2023-04-12T05:31:00.304Z,108.00
2023-04-12T05:32:00.255Z,104.00
2023-04-12T05:33:00.281Z,108.00
2023-04-12T05:34:00.209Z,108.00
2023-04-12T05:35:00.193Z,112.00
2023-04-12T05:36:00.204Z,116.00
2023-04-12T05:37:00.168Z,120.00
2023-04-12T05:38:00.157Z,128.00
2023-04-12T05:39:00.147Z,136.00
2023-04-12T05:40:00.210Z,136.00
2023-04-12T05:41:00.132Z,140.00
2023-04-12T05:42:00.111Z,140.00
2023-04-12T05:43:00.121Z,144.00
2023-04-12T05:44:00.113Z,148.00
2023-04-12T05:45:00.091Z,152.00
2023-04-12T05:46:00.061Z,160.00
2023-04-12T05:47:00.044Z,164.00
2023-04-12T05:48:00.092Z,172.00
2023-04-12T05:49:00.008Z,180.00
2023-04-12T05:50:00.004Z,188.00
2023-04-12T05:50:59.992Z,196.00
2023-04-12T05:51:59.972Z,208.00
2023-04-12T05:52:59.952Z,224.00
2023-04-12T05:53:59.945Z,236.00
2023-04-12T05:54:59.934Z,252.00
2023-04-12T05:55:59.921Z,260.00
2023-04-12T05:56:59.902Z,260.00
2023-04-12T05:57:59.888Z,256.00
2023-04-12T05:58:59.876Z,252.00
2023-04-12T05:59:59.873Z,252.00
2023-04-12T06:00:59.848Z,264.00
2023-04-12T06:01:59.871Z,272.00
2023-04-12T06:02:59.913Z,280.00
2023-04-12T06:03:59.927Z,288.00
2023-04-12T06:04:59.906Z,304.00
2023-04-12T06:05:59.790Z,316.00
2023-04-12T06:06:59.770Z,324.00
2023-04-12T06:07:59.765Z,328.00
2023-04-12T06:08:59.743Z,324.00
2023-04-12T06:09:59.732Z,324.00
2023-04-12T06:10:59.717Z,320.00
2023-04-12T06:11:59.705Z,312.00
2023-04-12T06:12:59.690Z,312.00
2023-04-12T06:13:59.678Z,312.00
2023-04-12T06:14:59.668Z,316.00
2023-04-12T06:15:59.702Z,328.00
2023-04-12T06:16:59.641Z,328.00
2023-04-12T06:17:59.714Z,332.00
2023-04-12T06:18:59.911Z,336.00
2023-04-12T06:19:59.622Z,340.00
2023-04-12T06:20:59.583Z,348.00
2023-04-12T06:21:59.584Z,360.00
2023-04-12T06:22:59.557Z,364.00
2023-04-12T06:23:59.552Z,364.00
2023-04-12T06:24:59.536Z,364.00
2023-04-12T06:25:59.524Z,372.00
2023-04-12T06:26:59.506Z,392.00
2023-04-12T06:27:59.489Z,412.00
2023-04-12T06:28:59.477Z,420.00
2023-04-12T06:29:59.461Z,420.00
2023-04-12T06:30:59.477Z,428.00
2023-04-12T06:31:59.439Z,456.00
2023-04-12T06:32:59.447Z,496.00
2023-04-12T06:33:59.407Z,536.00
2023-04-12T06:34:59.391Z,584.00
2023-04-12T06:35:59.425Z,628.00
2023-04-12T06:36:59.365Z,684.00
2023-04-12T06:37:59.354Z,724.00
2023-04-12T06:38:59.433Z,772.00
2023-04-12T06:39:59.333Z,824.00
2023-04-12T06:40:59.308Z,888.00
2023-04-12T06:41:59.298Z,968.00
2023-04-12T06:42:59.284Z,1064.00
2023-04-12T06:43:59.268Z,1168.00
2023-04-12T06:44:59.256Z,1272.00
2023-04-12T06:45:59.242Z,1392.00
2023-04-12T06:46:59.238Z,1504.00
2023-04-12T06:47:59.271Z,1604.00
2023-04-12T06:48:59.483Z,1684.00
2023-04-12T06:49:59.187Z,1744.00
2023-04-12T06:50:59.179Z,1804.00
2023-04-12T06:51:59.198Z,1836.00
2023-04-12T06:52:59.145Z,1892.00
2023-04-12T06:53:59.134Z,1900.00
2023-04-12T06:54:59.131Z,1908.00
2023-04-12T06:55:59.109Z,1896.00
2023-04-12T06:56:59.092Z,1900.00
2023-04-12T06:57:59.077Z,1928.00
2023-04-12T06:58:59.377Z,1952.00
2023-04-12T06:59:59.054Z,1984.00
2023-04-12T07:00:59.110Z,2016.00
2023-04-12T07:01:59.054Z,2016.00
2023-04-12T07:02:59.172Z,2012.00
2023-04-12T07:03:59.102Z,1988.00
2023-04-12T07:04:58.994Z,1944.00
2023-04-12T07:05:58.976Z,1912.00
2023-04-12T07:06:58.970Z,1900.00
2023-04-12T07:07:58.981Z,1888.00
2023-04-12T07:08:59.333Z,1884.00
2023-04-12T07:09:58.927Z,1892.00
2023-04-12T07:11:03.869Z,1892.00
2023-04-12T07:11:58.903Z,1904.00
2023-04-12T07:12:58.889Z,1896.00
2023-04-12T07:13:58.898Z,1884.00
2023-04-12T07:14:58.869Z,1888.00
2023-04-12T07:15:58.886Z,1908.00
2023-04-12T07:16:58.985Z,1928.00
2023-04-12T07:17:58.867Z,1956.00
2023-04-12T07:18:59.059Z,1972.00
2023-04-12T07:19:58.809Z,1984.00
2023-04-12T07:20:58.802Z,1992.00
2023-04-12T07:21:58.798Z,2016.00
2023-04-12T07:22:58.767Z,2044.00
2023-04-12T07:23:58.773Z,2080.00
2023-04-12T07:24:58.749Z,2124.00
2023-04-12T07:25:58.730Z,2188.00
2023-04-12T07:26:58.720Z,2296.00
2023-04-12T07:27:58.710Z,2412.00
2023-04-12T07:28:58.964Z,2516.00
2023-04-12T07:29:58.865Z,2608.00
2023-04-12T07:30:58.667Z,2684.00
2023-04-12T07:31:58.666Z,2708.00
2023-04-12T07:33:08.708Z,2716.00
2023-04-12T07:33:58.759Z,2684.00
2023-04-12T07:34:58.632Z,2632.00
2023-04-12T07:35:58.636Z,2544.00
2023-04-12T07:36:58.596Z,2452.00
2023-04-12T07:37:58.588Z,2364.00
2023-04-12T07:38:58.719Z,2280.00
2023-04-12T07:39:58.712Z,2212.00
2023-04-12T07:40:58.572Z,2160.00
2023-04-12T07:41:58.544Z,2132.00
2023-04-12T07:42:58.526Z,2136.00
2023-04-12T07:43:58.521Z,2172.00
2023-04-12T07:44:58.501Z,2228.00
2023-04-12T07:45:58.608Z,2300.00
2023-04-12T07:46:58.481Z,2368.00
2023-04-12T07:47:58.498Z,2416.00
2023-04-12T07:48:58.766Z,2456.00
2023-04-12T07:49:58.450Z,2508.00
2023-04-12T07:50:58.434Z,2548.00
2023-04-12T07:51:58.430Z,2588.00
2023-04-12T07:52:58.412Z,2624.00
2023-04-12T07:53:58.650Z,2668.00
2023-04-12T07:54:58.387Z,2696.00
2023-04-12T07:55:58.408Z,2688.00
2023-04-12T07:56:58.364Z,2692.00
2023-04-12T07:57:58.353Z,2680.00
2023-04-12T07:58:58.568Z,2660.00
2023-04-12T07:59:58.332Z,2660.00
2023-04-12T08:01:00.947Z,2648.00
2023-04-12T08:01:58.347Z,2648.00
2023-04-12T08:02:58.422Z,2648.00
2023-04-12T08:03:58.830Z,2632.00
2023-04-12T08:04:58.273Z,2624.00
2023-04-12T08:05:58.283Z,2628.00
2023-04-12T08:06:58.250Z,2644.00
2023-04-12T08:07:58.242Z,2676.00
2023-04-12T08:08:58.249Z,2692.00
2023-04-12T08:09:58.216Z,2700.00
2023-04-12T08:10:58.207Z,2704.00
2023-04-12T08:11:58.328Z,2704.00
2023-04-12T08:12:58.185Z,2704.00
2023-04-12T08:13:58.337Z,2732.00
2023-04-12T08:14:58.162Z,2772.00
2023-04-12T08:15:58.234Z,2824.00
2023-04-12T08:16:58.179Z,2844.00
2023-04-12T08:17:58.167Z,2824.00
2023-04-12T08:18:58.116Z,2860.00
2023-04-12T08:19:58.105Z,2868.00
2023-04-12T08:20:58.092Z,2912.00
2023-04-12T08:21:58.097Z,2788.00
2023-04-12T08:22:58.095Z,2840.00
2023-04-12T08:23:58.266Z,2884.00
2023-04-12T08:24:58.056Z,2944.00
2023-04-12T08:25:58.045Z,2956.00
2023-04-12T08:26:58.050Z,2968.00
2023-04-12T08:27:58.043Z,3040.00
2023-04-12T08:28:58.020Z,3140.00
2023-04-12T08:29:58.023Z,3176.00
2023-04-12T08:30:58.058Z,3212.00
2023-04-12T08:31:57.973Z,3136.00
2023-04-12T08:32:58.022Z,3188.00
2023-04-12T08:33:58.078Z,3184.00
2023-04-12T08:34:57.942Z,3192.00
2023-04-12T08:35:57.981Z,3224.00
2023-04-12T08:36:57.919Z,3344.00
2023-04-12T08:37:57.906Z,3460.00
2023-04-12T08:38:57.898Z,3548.00
2023-04-12T08:39:57.886Z,3476.00
2023-04-12T08:40:57.891Z,3656.00
2023-04-12T08:41:57.865Z,3636.00
2023-04-12T08:42:57.857Z,3608.00
2023-04-12T08:43:58.095Z,3576.00
2023-04-12T08:44:57.842Z,3500.00
2023-04-12T08:45:57.836Z,3572.00
2023-04-12T08:46:57.910Z,3580.00
2023-04-12T08:47:57.860Z,3564.00
2023-04-12T08:48:57.802Z,3388.00
2023-04-12T08:49:57.825Z,3308.00
2023-04-12T08:50:57.776Z,3452.00
2023-04-12T08:51:57.763Z,3292.00
2023-04-12T08:52:57.753Z,3240.00
2023-04-12T08:53:58.130Z,3420.00
2023-04-12T08:54:57.735Z,3328.00
2023-04-12T08:55:57.724Z,3588.00
2023-04-12T08:56:57.714Z,3600.00
2023-04-12T08:57:57.705Z,3456.00
2023-04-12T08:58:57.693Z,3312.00
2023-04-12T08:59:57.744Z,3632.00
2023-04-12T09:00:57.683Z,3580.00
2023-04-12T09:01:57.749Z,3632.00
2023-04-12T09:02:57.922Z,3576.00
2023-04-12T09:03:58.202Z,3568.00
2023-04-12T09:04:57.721Z,3612.00
2023-04-12T09:05:57.630Z,3464.00
2023-04-12T09:06:57.627Z,3552.00
2023-04-12T09:07:57.610Z,3700.00
2023-04-12T09:08:57.594Z,3832.00
2023-04-12T09:09:57.653Z,3652.00
2023-04-12T09:10:57.583Z,3760.00
2023-04-12T09:11:57.601Z,3600.00
2023-04-12T09:12:57.593Z,3532.00
2023-04-12T09:13:58.453Z,3540.00
2023-04-12T09:14:57.547Z,3540.00
2023-04-12T09:15:57.555Z,3740.00
2023-04-12T09:16:57.625Z,3880.00
2023-04-12T09:17:57.709Z,3952.00
2023-04-12T09:18:57.770Z,3980.00
2023-04-12T09:19:57.497Z,3980.00
2023-04-12T09:20:57.488Z,3956.00
2023-04-12T09:21:57.483Z,3972.00
2023-04-12T09:22:57.467Z,3940.00
2023-04-12T09:23:57.579Z,4004.00
2023-04-12T09:24:57.450Z,3980.00
2023-04-12T09:25:57.445Z,3936.00
2023-04-12T09:26:57.438Z,3884.00
2023-04-12T09:27:57.425Z,3872.00
2023-04-12T09:28:57.443Z,3884.00
2023-04-12T09:29:59.013Z,3880.00
2023-04-12T09:30:57.493Z,3892.00
2023-04-12T09:31:57.648Z,3856.00
2023-04-12T09:32:57.403Z,3840.00
2023-04-12T09:33:57.525Z,3816.00
2023-04-12T09:34:57.366Z,3740.00
2023-04-12T09:35:57.390Z,3736.00
2023-04-12T09:36:57.360Z,3756.00
2023-04-12T09:37:57.346Z,3736.00
2023-04-12T09:38:57.333Z,3848.00
2023-04-12T09:39:57.322Z,3860.00
2023-04-12T09:40:57.316Z,3756.00
2023-04-12T09:41:57.309Z,3876.00
2023-04-12T09:42:57.303Z,3880.00
2023-04-12T09:43:57.456Z,3744.00
2023-04-12T09:44:57.305Z,3588.00
2023-04-12T09:45:57.325Z,3436.00
2023-04-12T09:46:57.340Z,3404.00
2023-04-12T09:47:57.370Z,3444.00
2023-04-12T09:48:57.256Z,3512.00
2023-04-12T09:49:57.268Z,3516.00
2023-04-12T09:50:57.238Z,3492.00
2023-04-12T09:51:59.445Z,3376.00
2023-04-12T09:52:57.241Z,3280.00
2023-04-12T09:53:57.423Z,3176.00
2023-04-12T09:54:57.203Z,3100.00
2023-04-12T09:55:57.220Z,3148.00
2023-04-12T09:56:57.203Z,3268.00
2023-04-12T09:57:57.192Z,3316.00
2023-04-12T09:58:57.380Z,3288.00
2023-04-12T09:59:57.222Z,3332.00
2023-04-12T10:00:57.187Z,3340.00
2023-04-12T10:01:57.302Z,3196.00
2023-04-12T10:02:57.718Z,3184.00
2023-04-12T10:03:57.556Z,3236.00
2023-04-12T10:04:57.392Z,3208.00
2023-04-12T10:05:57.116Z,3164.00
2023-04-12T10:06:57.131Z,3268.00
2023-04-12T10:07:57.106Z,3168.00
2023-04-12T10:08:57.231Z,2944.00
2023-04-12T10:09:57.104Z,2916.00
2023-04-12T10:10:57.076Z,2780.00
2023-04-12T10:11:57.069Z,2724.00
2023-04-12T10:12:57.072Z,2744.00
2023-04-12T10:13:57.462Z,2740.00
2023-04-12T10:14:57.045Z,2656.00
2023-04-12T10:15:57.089Z,2652.00
2023-04-12T10:16:57.026Z,2528.00
2023-04-12T10:17:57.016Z,2564.00
2023-04-12T10:18:57.301Z,2588.00
2023-04-12T10:19:57.068Z,2548.00
2023-04-12T10:20:56.998Z,2444.00
2023-04-12T10:21:57.140Z,2516.00
2023-04-12T10:22:56.992Z,2452.00
2023-04-12T10:23:56.987Z,2408.00
2023-04-12T10:24:56.956Z,2452.00
2023-04-12T10:25:56.948Z,2540.00
2023-04-12T10:26:56.939Z,2748.00
2023-04-12T10:27:56.950Z,2848.00
2023-04-12T10:28:57.227Z,2780.00
2023-04-12T10:29:56.916Z,2708.00
2023-04-12T10:30:56.937Z,2420.00
2023-04-12T10:31:56.923Z,2052.00
2023-04-12T10:32:56.908Z,1700.00
2023-04-12T10:33:56.876Z,1388.00
2023-04-12T10:34:56.872Z,1164.00
2023-04-12T10:35:56.945Z,996.00
2023-04-12T10:36:56.934Z,884.00
2023-04-12T10:37:56.844Z,840.00
2023-04-12T10:38:57.055Z,812.00
2023-04-12T10:39:56.850Z,780.00
2023-04-12T10:40:56.813Z,756.00
2023-04-12T10:41:56.829Z,756.00
2023-04-12T10:42:56.795Z,804.00
2023-04-12T10:43:56.810Z,876.00
2023-04-12T10:44:58.744Z,960.00
2023-04-12T10:45:56.761Z,1080.00
2023-04-12T10:46:56.768Z,1188.00
2023-04-12T10:47:56.835Z,1276.00
2023-04-12T10:48:56.934Z,1364.00
2023-04-12T10:49:56.720Z,1388.00
2023-04-12T10:50:56.736Z,1444.00
2023-04-12T10:51:56.733Z,1440.00
2023-04-12T10:52:56.721Z,1412.00
2023-04-12T10:53:56.706Z,1372.00
2023-04-12T10:54:56.670Z,1364.00
2023-04-12T10:55:56.677Z,1448.00
2023-04-12T10:56:56.683Z,1504.00
2023-04-12T10:57:56.639Z,1508.00
2023-04-12T10:58:57.220Z,1528.00
2023-04-12T10:59:56.732Z,1532.00
2023-04-12T11:00:56.858Z,1532.00
2023-04-12T11:01:56.777Z,1552.00
2023-04-12T11:02:56.917Z,1556.00
2023-04-12T11:03:56.694Z,1556.00
2023-04-12T11:04:56.618Z,1520.00
2023-04-12T11:05:56.588Z,1464.00
2023-04-12T11:06:58.535Z,1420.00
2023-04-12T11:07:56.595Z,1380.00
2023-04-12T11:08:56.956Z,1392.00
2023-04-12T11:09:56.514Z,1452.00
2023-04-12T11:10:56.520Z,1492.00
2023-04-12T11:11:56.532Z,1472.00
2023-04-12T11:12:56.484Z,1420.00
2023-04-12T11:13:56.504Z,1372.00
2023-04-12T11:14:56.471Z,1292.00
2023-04-12T11:15:56.491Z,1252.00
2023-04-12T11:16:56.482Z,1256.00
2023-04-12T11:17:56.521Z,1284.00
2023-04-12T11:18:56.776Z,1316.00
2023-04-12T11:19:56.411Z,1352.00
2023-04-12T11:20:56.403Z,1444.00
2023-04-12T11:21:56.436Z,1532.00
2023-04-12T11:22:56.382Z,1564.00
2023-04-12T11:23:56.487Z,1600.00
2023-04-12T11:24:56.378Z,1672.00
2023-04-12T11:25:56.347Z,1700.00
2023-04-12T11:26:56.343Z,1772.00
2023-04-12T11:27:56.340Z,1828.00
2023-04-12T11:28:56.621Z,1928.00
2023-04-12T11:29:56.318Z,2100.00
2023-04-12T11:30:56.345Z,2244.00
2023-04-12T11:31:56.395Z,2276.00
2023-04-12T11:32:56.312Z,2124.00
2023-04-12T11:33:56.265Z,2040.00
2023-04-12T11:34:56.266Z,1944.00
2023-04-12T11:35:56.250Z,1872.00
2023-04-12T11:36:56.239Z,1820.00
2023-04-12T11:37:56.225Z,1696.00
2023-04-12T11:38:56.386Z,1568.00
2023-04-12T11:39:56.223Z,1456.00
2023-04-12T11:40:56.197Z,1328.00
2023-04-12T11:41:56.184Z,1244.00
2023-04-12T11:42:56.178Z,1216.00
2023-04-12T11:43:56.166Z,1224.00
2023-04-12T11:44:59.832Z,1320.00
2023-04-12T11:45:56.187Z,1468.00
2023-04-12T11:46:56.141Z,1548.00
2023-04-12T11:47:56.139Z,1528.00
2023-04-12T11:48:56.371Z,1552.00
2023-04-12T11:49:56.118Z,1580.00
2023-04-12T11:51:07.836Z,1592.00
2023-04-12T11:51:56.085Z,1600.00
2023-04-12T11:52:56.076Z,1600.00
2023-04-12T11:53:56.392Z,1528.00
2023-04-12T11:54:56.057Z,1492.00
2023-04-12T11:55:56.064Z,1508.00
2023-04-12T11:56:56.036Z,1476.00
2023-04-12T11:57:56.084Z,1448.00
2023-04-12T11:58:56.019Z,1468.00
2023-04-12T11:59:56.003Z,1560.00
2023-04-12T12:00:55.997Z,1660.00
2023-04-12T12:01:55.997Z,1744.00
2023-04-12T12:03:06.600Z,1816.00
2023-04-12T12:03:56.325Z,1896.00
2023-04-12T12:04:56.227Z,1996.00
2023-04-12T12:05:56.559Z,2084.00
2023-04-12T12:06:56.189Z,2024.00
2023-04-12T12:07:55.922Z,1792.00
2023-04-12T12:08:55.920Z,1624.00
2023-04-12T12:09:55.902Z,1500.00
2023-04-12T12:11:06.401Z,1380.00
2023-04-12T12:11:55.921Z,1272.00
2023-04-12T12:12:55.874Z,1200.00
2023-04-12T12:13:55.914Z,1220.00
2023-04-12T12:14:55.855Z,1268.00
2023-04-12T12:15:55.948Z,1340.00
2023-04-12T12:16:55.837Z,1452.00
2023-04-12T12:17:55.853Z,1568.00
2023-04-12T12:18:55.814Z,1672.00
2023-04-12T12:19:55.803Z,1756.00
2023-04-12T12:20:55.826Z,1780.00
2023-04-12T12:21:55.792Z,1764.00
2023-04-12T12:22:55.777Z,1688.00
2023-04-12T12:23:56.071Z,1556.00
2023-04-12T12:24:55.763Z,1392.00
2023-04-12T12:26:06.072Z,1248.00
2023-04-12T12:26:55.736Z,1164.00
2023-04-12T12:27:55.813Z,1148.00
2023-04-12T12:28:55.718Z,1180.00
2023-04-12T12:29:55.705Z,1236.00
2023-04-12T12:30:55.724Z,1324.00
2023-04-12T12:31:55.772Z,1420.00
2023-04-12T12:32:55.728Z,1544.00
2023-04-12T12:33:55.667Z,1656.00
2023-04-12T12:34:55.688Z,1772.00
2023-04-12T12:35:55.703Z,1804.00
2023-04-12T12:36:55.640Z,1756.00